Temecula, CA (92591)

7:15 PM PDT on July 25, 2016 (GMT -0700)
Vintage Hills | | Change Station

Elev 1322 ft 33.51 °N, 117.09 °W | Updated 1 second ago

Clear
Clear
76.6 °F
Feels Like 78 °F
N
3.1
Wind Variable Wind from South
Gusts 5.0 mph

Today
High -- | Low -- °F
--% Chance of Precip.
Yesterday
High -- | Low -- °F
Precip. -- in
Pressure 29.86 in
Visibility 10.0 miles
Clouds Clear
Heat Index 78 °F
Dew Point 64 °F
Humidity 64%
Rainfall 0.00 in
Snow Depth Not available.
5:56 AM 7:53 PM
Waning Gibbous, 60% visible
METAR KRIV 260158Z AUTO VRB06KT 10SM CLR 33/11 A2990 RMK AO2 SLP109 T03280107
Pressure 29.86 in
Visibility 10.0 miles
Clouds Clear
Heat Index 78 °F
Dew Point 64 °F
Humidity 64%
Rainfall 0.00 in
Snow Depth Not available.
5:56 AM 7:53 PM
Waning Gibbous, 60% visible
METAR KRIV 260158Z AUTO VRB06KT 10SM CLR 33/11 A2990 RMK AO2 SLP109 T03280107

10-Day Weather Forecast

Almanac

Astronomy

Jul. 25, 2016 Rise Set
Actual Time
Civil Twilight
Nautical Twilight
Astronomical Twilight
Moon
Length of Visible Light
Length of Day
Tomorrow will be .
, % of the Moon is Illuminated

Today's Extremes

State Highs State Lows

Community

WunderPhotos

Upload Photos

1,927,503 photos uploaded!

WunderBlog® & News

Nearby

Air Quality

  Air Quality AQ Index Pollutant
Not available.

Snow Depth

Station Depth Elevation

Earthquake Activity

City Distance Mag. Time & Date
Minimum magnitude displayed is 2.5.

Coastal Water Temperatures

Place Temperature

Stations

Nearby Weather Stations

Station Location Temp. Windchill Dew Point Humidity Wind Precip. Elev Updated Type
                   

Watches & Warnings

There are currently no watches in effect.